Time;durP1;ratioP1;P1;durP2;ratioP2;P2;SDS_P1;SDS_P2;PMS_P1;PMS_P2;Temp;Humidity;BMP_temperature;BMP_pressure;BME280_temperature;BME280_humidity;BME280_pressure;Samples;Min_cycle;Max_cycle;Signal;HPM_P1;HPM_P2
2022/10/28 00:00:37;;;;;;;8.77;4.35;;;17.00;94.50;;;;;;5097306;28;20204;-69
2022/10/28 00:03:04;;;;;;;10.15;5.13;;;16.80;99.90;;;;;;5080059;28;20212;-69
2022/10/28 00:05:33;;;;;;;11.13;4.57;;;16.60;99.90;;;;;;5080329;28;20202;-69
2022/10/28 00:08:00;;;;;;;16.83;5.03;;;16.50;99.90;;;;;;5077153;28;20217;-70
2022/10/28 00:10:28;;;;;;;8.85;4.50;;;16.40;99.90;;;;;;5072164;28;20210;-70
2022/10/28 00:12:55;;;;;;;13.65;4.80;;;16.40;99.90;;;;;;5082208;28;20205;-69
2022/10/28 00:15:22;;;;;;;9.07;4.65;;;16.30;99.90;;;;;;5101053;28;20758;-69
2022/10/28 00:17:49;;;;;;;10.50;4.43;;;16.30;1.00;;;;;;5068326;28;20759;-69
2022/10/28 00:20:16;;;;;;;9.23;4.88;;;16.20;1.00;;;;;;5087587;28;20205;-69
2022/10/28 00:22:43;;;;;;;11.05;4.82;;;16.20;1.00;;;;;;5100164;28;20760;-70
2022/10/28 00:25:10;;;;;;;10.13;5.57;;;16.10;1.00;;;;;;5086440;28;20194;-69
2022/10/28 00:27:37;;;;;;;10.30;4.68;;;16.10;1.00;;;;;;5101569;28;20242;-69
2022/10/28 00:30:04;;;;;;;14.20;5.00;;;16.00;1.00;;;;;;5066040;28;20202;-70
2022/10/28 00:32:31;;;;;;;9.13;4.95;;;16.10;1.00;;;;;;5097041;28;20186;-70
2022/10/28 00:34:58;;;;;;;13.63;5.15;;;16.10;1.00;;;;;;5090480;28;20273;-70
2022/10/28 00:37:25;;;;;;;9.85;4.43;;;16.00;1.00;;;;;;5066313;28;20218;-70
2022/10/28 00:39:52;;;;;;;12.55;4.97;;;16.00;1.00;;;;;;5088368;28;20810;-71
2022/10/28 00:42:21;;;;;;;12.18;5.20;;;16.10;1.00;;;;;;5090079;28;20657;-71
2022/10/28 00:44:52;;;;;;;10.35;5.28;;;16.10;1.00;;;;;;5063384;28;20197;-71
2022/10/28 00:47:34;;;;;;;11.48;5.50;;;16.10;1.00;;;;;;5084380;28;20286;-71
2022/10/28 00:50:26;;;;;;;10.90;4.43;;;16.10;1.00;;;;;;5099163;28;20255;-71
2022/10/28 00:53:02;;;;;;;11.20;4.95;;;16.10;1.00;;;;;;5073126;28;20328;-71
2022/10/28 00:55:32;;;;;;;13.82;5.18;;;16.10;1.00;;;;;;5100690;28;20532;-70
2022/10/28 00:58:00;;;;;;;11.00;4.68;;;16.10;1.00;;;;;;5101519;28;20197;-70
2022/10/28 01:00:27;;;;;;;10.57;4.53;;;16.10;1.00;;;;;;5081073;28;20206;-70
2022/10/28 01:02:55;;;;;;;6.47;4.28;;;16.10;1.00;;;;;;5083319;28;20514;-70
2022/10/28 01:05:26;;;;;;;14.38;5.45;;;16.10;1.00;;;;;;5082649;28;20234;-71
2022/10/28 01:07:57;;;;;;;14.32;5.28;;;16.10;1.00;;;;;;5088901;28;20206;-71
2022/10/28 01:10:51;;;;;;;10.07;4.57;;;16.20;1.00;;;;;;5099318;28;20241;-72
2022/10/28 01:13:49;;;;;;;9.10;5.32;;;16.20;1.00;;;;;;5084131;28;20284;-71
2022/10/28 01:16:31;;;;;;;20.08;5.03;;;16.20;1.00;;;;;;5087876;28;20238;-69
2022/10/28 01:19:24;;;;;;;11.98;5.20;;;16.20;99.90;;;;;;5080831;28;20215;-70
2022/10/28 01:22:12;;;;;;;15.93;5.32;;;16.30;99.90;;;;;;5099233;28;20209;-69
2022/10/28 01:25:16;;;;;;;12.90;4.95;;;16.20;99.90;;;;;;5081381;28;20193;-69
2022/10/28 01:28:04;;;;;;;11.55;3.97;;;16.30;99.90;;;;;;5088372;28;20240;-69
2022/10/28 01:30:52;;;;;;;11.57;4.80;;;16.30;99.90;;;;;;5079443;28;20206;-67
2022/10/28 01:33:37;;;;;;;9.80;4.30;;;16.40;99.90;;;;;;5087302;28;20932;-69
2022/10/28 01:36:15;;;;;;;10.80;4.72;;;16.40;99.90;;;;;;5088115;28;20229;-69
2022/10/28 01:39:11;;;;;;;9.38;4.53;;;16.40;99.90;;;;;;5098242;28;20185;-69
2022/10/28 01:41:47;;;;;;;13.20;4.40;;;16.40;99.90;;;;;;5083117;28;20691;-68
2022/10/28 01:44:27;;;;;;;12.00;4.40;;;16.40;99.90;;;;;;5085913;28;20356;-69
2022/10/28 01:47:08;;;;;;;10.30;4.55;;;16.40;99.90;;;;;;5081609;28;20285;-69
2022/10/28 01:49:43;;;;;;;11.75;4.75;;;16.40;99.90;;;;;;5098188;28;20904;-68
2022/10/28 01:52:13;;;;;;;10.98;4.80;;;16.40;99.90;;;;;;5080454;28;20209;-69
2022/10/28 01:54:45;;;;;;;12.38;5.22;;;16.30;99.90;;;;;;5079246;28;20198;-68
2022/10/28 01:57:14;;;;;;;9.75;4.88;;;16.30;99.90;;;;;;5079743;28;20289;-70
2022/10/28 01:59:42;;;;;;;10.27;5.05;;;16.40;99.90;;;;;;5064024;28;20201;-69
2022/10/28 02:02:09;;;;;;;15.05;5.65;;;16.40;99.90;;;;;;5088285;28;20653;-70
2022/10/28 02:04:35;;;;;;;8.68;4.70;;;16.40;99.90;;;;;;5091345;28;20673;-69
2022/10/28 02:07:03;;;;;;;15.35;5.53;;;16.40;99.90;;;;;;5078069;28;20285;-71
2022/10/28 02:09:59;;;;;;;13.70;7.65;;;16.40;99.90;;;;;;5099625;28;20194;-71
2022/10/28 02:12:33;;;;;;;14.93;5.13;;;16.40;99.90;;;;;;5080220;28;20232;-69
2022/10/28 02:15:17;;;;;;;12.20;3.88;;;16.30;77.20;;;;;;5081298;28;20190;-71
2022/10/28 02:17:59;;;;;;;13.88;5.18;;;16.30;1.00;;;;;;5079128;28;20204;-66
2022/10/28 02:20:32;;;;;;;22.10;11.38;;;16.40;1.00;;;;;;5097590;28;20194;-63
2022/10/28 02:23:27;;;;;;;14.77;8.48;;;16.30;14.60;;;;;;5079568;28;20190;-62
2022/10/28 02:26:25;;;;;;;23.60;16.00;;;16.30;99.90;;;;;;5087269;28;20217;-65
2022/10/28 02:29:01;;;;;;;23.80;12.38;;;16.30;99.90;;;;;;5060450;28;20201;-64
2022/10/28 02:31:48;;;;;;;24.67;13.82;;;16.30;90.10;;;;;;5084655;28;20309;-65
2022/10/28 02:34:20;;;;;;;20.23;7.43;;;16.20;99.90;;;;;;5097673;28;22090;-65
2022/10/28 02:36:51;;;;;;;16.33;8.98;;;16.10;99.90;;;;;;5095335;28;20734;-65
2022/10/28 02:39:25;;;;;;;16.30;9.65;;;16.10;99.90;;;;;;5086640;28;20190;-67
2022/10/28 02:42:41;;;;;;;19.25;7.55;;;16.10;99.90;;;;;;5086306;28;20197;-66
2022/10/28 02:45:16;;;;;;;13.77;6.22;;;16.10;99.90;;;;;;5061327;28;20212;-66
2022/10/28 02:47:51;;;;;;;11.13;6.70;;;16.00;99.90;;;;;;5077206;28;20203;-66
2022/10/28 02:50:23;;;;;;;15.23;4.90;;;16.00;99.90;;;;;;5079681;28;20218;-65
2022/10/28 02:52:55;;;;;;;12.07;5.00;;;16.00;99.90;;;;;;5098229;28;20194;-65
2022/10/28 02:55:26;;;;;;;15.10;4.93;;;16.00;99.90;;;;;;5082005;28;20190;-66
2022/10/28 02:57:53;;;;;;;13.05;5.10;;;15.90;99.90;;;;;;5079754;28;20281;-65
2022/10/28 03:00:23;;;;;;;12.73;5.47;;;15.90;99.90;;;;;;5087093;28;20228;-66
2022/10/28 03:02:50;;;;;;;11.68;6.38;;;15.90;99.90;;;;;;5098173;28;21992;-66
2022/10/28 03:05:18;;;;;;;10.85;4.80;;;15.90;97.30;;;;;;5062759;28;20178;-63
2022/10/28 03:07:45;;;;;;;15.45;4.93;;;15.90;95.90;;;;;;5086726;28;20221;-61
2022/10/28 03:10:11;;;;;;;11.52;6.22;;;15.90;85.20;;;;;;5063500;28;20194;-63
2022/10/28 03:12:38;;;;;;;17.30;5.35;;;15.90;22.00;;;;;;5098111;28;20711;-62
2022/10/28 03:15:06;;;;;;;14.18;4.88;;;15.90;33.80;;;;;;5085724;28;20194;-67
2022/10/28 03:17:33;;;;;;;14.52;5.47;;;15.90;82.90;;;;;;5062672;28;20205;-63
2022/10/28 03:20:00;;;;;;;15.68;5.72;;;15.90;99.90;;;;;;5080128;28;20783;-62
2022/10/28 03:22:27;;;;;;;7.47;5.05;;;15.90;96.00;;;;;;5086377;28;20650;-64
2022/10/28 03:24:54;;;;;;;11.05;5.47;;;15.90;13.00;;;;;;5098149;28;20197;-64
2022/10/28 03:27:21;;;;;;;17.77;9.88;;;15.90;58.60;;;;;;5093453;28;20320;-63
2022/10/28 03:29:47;;;;;;;12.80;5.00;;;16.00;1.00;;;;;;5077647;28;20202;-64
2022/10/28 03:32:14;;;;;;;12.68;5.65;;;16.00;1.00;;;;;;5069613;28;20228;-64
2022/10/28 03:34:41;;;;;;;9.00;4.85;;;15.90;1.00;;;;;;5092663;28;20664;-65
2022/10/28 03:37:09;;;;;;;11.32;4.82;;;15.90;1.00;;;;;;5097287;28;20238;-65
2022/10/28 03:39:36;;;;;;;12.30;4.03;;;15.90;1.00;;;;;;5076063;28;20645;-68
2022/10/28 03:42:02;;;;;;;14.73;4.43;;;16.00;99.90;;;;;;5066550;28;20740;-65
2022/10/28 03:44:29;;;;;;;14.10;3.70;;;16.20;6.50;;;;;;5082857;28;20220;-64
2022/10/28 03:46:56;;;;;;;13.50;4.15;;;16.40;1.00;;;;;;5089069;28;20737;-66
2022/10/28 03:49:23;;;;;;;11.88;3.83;;;16.50;1.00;;;;;;5084522;28;20796;-64
2022/10/28 03:51:50;;;;;;;9.18;4.43;;;16.50;1.00;;;;;;5089657;28;20206;-63
2022/10/28 03:54:17;;;;;;;11.57;4.03;;;16.60;1.00;;;;;;5068636;28;20204;-65
2022/10/28 03:56:44;;;;;;;7.80;4.43;;;16.60;1.00;;;;;;5065937;28;20263;-64
2022/10/28 03:59:11;;;;;;;12.27;3.70;;;16.60;1.00;;;;;;5066035;28;20194;-64
2022/10/28 04:01:42;;;;;;;13.15;3.60;;;16.60;1.00;;;;;;5099895;28;20182;-64
2022/10/28 04:04:09;;;;;;;11.05;4.07;;;16.60;1.00;;;;;;5101615;28;20190;-63
2022/10/28 04:06:36;;;;;;;12.10;4.05;;;16.70;1.00;;;;;;5066572;28;20302;-65
2022/10/28 04:09:03;;;;;;;8.82;3.97;;;16.50;1.00;;;;;;5099954;28;20244;-67
2022/10/28 04:11:30;;;;;;;8.52;4.40;;;16.30;1.00;;;;;;5095152;28;20217;-67
2022/10/28 04:13:57;;;;;;;11.80;4.07;;;16.20;1.00;;;;;;5101154;28;20232;-66
2022/10/28 04:16:24;;;;;;;11.23;4.35;;;16.00;24.00;;;;;;5069136;28;20204;-64
2022/10/28 04:18:51;;;;;;;12.00;4.38;;;15.80;92.60;;;;;;5082345;28;20197;-64
2022/10/28 04:21:17;;;;;;;10.73;4.45;;;15.70;92.40;;;;;;5102068;28;20225;-67
2022/10/28 04:23:44;;;;;;;13.80;4.35;;;15.60;34.00;;;;;;5089464;28;20684;-64
2022/10/28 04:26:13;;;;;;;11.57;3.50;;;15.70;1.00;;;;;;5102047;28;20222;-65
2022/10/28 04:28:40;;;;;;;10.10;3.63;;;15.80;1.00;;;;;;5080990;28;20251;-66
2022/10/28 04:31:08;;;;;;;14.90;4.18;;;15.70;1.00;;;;;;5083626;28;20216;-66
2022/10/28 04:33:35;;;;;;;12.10;4.13;;;15.80;1.00;;;;;;5101074;28;20206;-67
2022/10/28 04:36:02;;;;;;;14.38;5.28;;;15.80;1.00;;;;;;5088459;28;20210;-66
2022/10/28 04:38:29;;;;;;;12.10;5.00;;;15.70;1.00;;;;;;5102767;28;20239;-64
2022/10/28 04:40:56;;;;;;;11.65;5.43;;;15.60;1.00;;;;;;5103328;28;20201;-65
2022/10/28 04:43:23;;;;;;;12.35;4.65;;;15.50;1.00;;;;;;5064672;28;20759;-64
2022/10/28 04:45:51;;;;;;;12.25;4.18;;;15.40;33.40;;;;;;5098882;28;20231;-64
2022/10/28 04:48:18;;;;;;;15.90;4.05;;;15.50;1.00;;;;;;5079077;28;20197;-67
2022/10/28 04:50:45;;;;;;;8.27;3.55;;;15.60;1.00;;;;;;5090329;28;20202;-67
2022/10/28 04:53:12;;;;;;;8.57;3.67;;;15.60;1.00;;;;;;5099337;28;20305;-64
2022/10/28 04:55:39;;;;;;;14.23;4.47;;;15.70;1.00;;;;;;5080737;28;20210;-63
2022/10/28 04:58:06;;;;;;;18.00;3.85;;;15.90;99.90;;;;;;5099511;28;20720;-64
2022/10/28 05:00:33;;;;;;;11.90;3.70;;;16.30;99.90;;;;;;5102377;28;20201;-64
2022/10/28 05:03:01;;;;;;;13.60;3.53;;;16.40;99.90;;;;;;5082757;28;20193;-63
2022/10/28 05:05:28;;;;;;;15.68;3.65;;;16.80;59.70;;;;;;5085918;28;20748;-65
2022/10/28 05:07:55;;;;;;;15.80;3.53;;;17.00;28.70;;;;;;5065502;28;21143;-63
2022/10/28 05:10:23;;;;;;;15.73;3.40;;;17.10;12.00;;;;;;5099386;28;20233;-64
2022/10/28 05:12:50;;;;;;;11.63;3.60;;;16.90;21.00;;;;;;5080943;28;20245;-65
2022/10/28 05:15:17;;;;;;;12.55;3.75;;;16.80;35.30;;;;;;5102279;28;20217;-64
2022/10/28 05:17:45;;;;;;;11.00;3.92;;;16.70;46.90;;;;;;5085909;28;20200;-64
2022/10/28 05:20:14;;;;;;;16.20;4.00;;;16.80;37.70;;;;;;5100454;28;20198;-64
2022/10/28 05:22:52;;;;;;;12.63;3.67;;;16.50;99.90;;;;;;5100415;28;20247;-63
2022/10/28 05:25:21;;;;;;;17.05;4.30;;;16.50;99.90;;;;;;5097005;28;20533;-64
2022/10/28 05:27:49;;;;;;;14.30;3.53;;;16.10;99.90;;;;;;5100532;28;20197;-64
2022/10/28 05:30:16;;;;;;;17.85;4.05;;;16.10;99.90;;;;;;5089211;28;20517;-65
2022/10/28 05:32:44;;;;;;;12.68;4.70;;;16.10;99.90;;;;;;5089125;28;20237;-64
2022/10/28 05:35:11;;;;;;;10.73;3.92;;;16.00;99.90;;;;;;5097690;28;20198;-65
2022/10/28 05:37:38;;;;;;;17.45;4.55;;;15.70;99.90;;;;;;5081943;28;20218;-64
2022/10/28 05:40:05;;;;;;;15.52;4.60;;;15.60;99.90;;;;;;5098638;28;20668;-65
2022/10/28 05:42:32;;;;;;;14.95;5.63;;;15.40;1.00;;;;;;5089254;28;20198;-65
2022/10/28 05:44:59;;;;;;;11.90;6.07;;;15.10;1.00;;;;;;5081943;28;20245;-64
2022/10/28 05:47:26;;;;;;;17.05;6.07;;;14.90;1.00;;;;;;5098349;28;20221;-64
2022/10/28 05:49:53;;;;;;;14.27;6.15;;;14.80;1.00;;;;;;5088428;28;20705;-63
2022/10/28 05:52:20;;;;;;;16.23;6.00;;;14.60;94.40;;;;;;5080779;28;20643;-63
2022/10/28 05:54:47;;;;;;;13.73;5.68;;;14.50;99.90;;;;;;5100192;28;20194;-67
2022/10/28 05:57:14;;;;;;;11.88;5.80;;;14.40;99.90;;;;;;5099663;28;20193;-64
2022/10/28 05:59:41;;;;;;;14.77;5.85;;;14.40;99.90;;;;;;5099825;28;20727;-63
2022/10/28 06:02:14;;;;;;;9.98;5.43;;;14.30;99.90;;;;;;5099991;28;20681;-64
2022/10/28 06:04:41;;;;;;;10.52;5.82;;;14.30;99.90;;;;;;5097929;28;20196;-65
2022/10/28 06:07:08;;;;;;;13.95;5.90;;;14.20;1.00;;;;;;5081903;28;20202;-65
2022/10/28 06:09:35;;;;;;;12.50;5.70;;;14.20;1.00;;;;;;5098749;28;20205;-64
2022/10/28 06:12:03;;;;;;;17.08;6.03;;;14.10;1.00;;;;;;5088014;28;20213;-64
2022/10/28 06:14:31;;;;;;;12.88;5.35;;;14.10;1.00;;;;;;5082892;28;20205;-65
2022/10/28 06:16:58;;;;;;;16.23;5.57;;;14.20;1.00;;;;;;5080309;28;20660;-65
2022/10/28 06:19:25;;;;;;;10.63;4.93;;;14.20;1.00;;;;;;5096835;28;20670;-64
2022/10/28 06:21:52;;;;;;;13.40;6.70;;;14.30;1.00;;;;;;5098652;28;20189;-64
2022/10/28 06:24:19;;;;;;;14.02;6.93;;;14.30;1.00;;;;;;5081418;28;20297;-64
2022/10/28 06:26:46;;;;;;;25.15;7.25;;;14.40;1.00;;;;;;5099690;28;20243;-64
2022/10/28 06:29:13;;;;;;;27.48;6.93;;;14.40;1.00;;;;;;5081236;28;20250;-64
2022/10/28 06:31:41;;;;;;;12.85;5.70;;;14.50;99.90;;;;;;5086694;28;20246;-64
2022/10/28 06:34:09;;;;;;;17.02;5.82;;;14.60;99.90;;;;;;5066020;28;20209;-65
2022/10/28 06:36:36;;;;;;;17.65;9.27;;;14.70;99.90;;;;;;5096823;28;20267;-65
2022/10/28 06:39:04;;;;;;;20.33;7.80;;;14.80;67.40;;;;;;5081331;28;20186;-63
2022/10/28 06:41:31;;;;;;;17.20;5.88;;;15.00;31.80;;;;;;5097064;28;20197;-64
2022/10/28 06:43:58;;;;;;;19.73;6.07;;;15.00;1.00;;;;;;5080064;28;20688;-64
2022/10/28 06:46:26;;;;;;;19.33;5.00;;;15.00;1.00;;;;;;5086291;28;20189;-64
2022/10/28 06:48:54;;;;;;;10.02;4.82;;;15.20;1.00;;;;;;5062989;28;20274;-64
2022/10/28 06:51:21;;;;;;;11.48;4.97;;;15.40;1.00;;;;;;5087605;28;20229;-64
2022/10/28 06:53:50;;;;;;;13.15;5.20;;;15.60;1.00;;;;;;5098069;28;20202;-64
2022/10/28 06:56:17;;;;;;;15.20;5.35;;;15.70;1.00;;;;;;5087763;28;20198;-67
2022/10/28 06:58:49;;;;;;;13.90;4.55;;;15.90;1.00;;;;;;5086679;28;20217;-64
2022/10/28 07:01:16;;;;;;;15.27;5.40;;;16.00;1.00;;;;;;5098233;28;20193;-64
2022/10/28 07:03:44;;;;;;;20.27;4.80;;;16.10;99.90;;;;;;5098625;28;20212;-64
2022/10/28 07:06:11;;;;;;;9.15;4.70;;;16.20;99.90;;;;;;5079293;28;20205;-64
2022/10/28 07:08:38;;;;;;;21.08;4.53;;;16.50;99.90;;;;;;5064530;28;20197;-65
2022/10/28 07:11:05;;;;;;;12.50;4.65;;;16.60;99.90;;;;;;5097660;28;20280;-63
2022/10/28 07:13:32;;;;;;;12.98;4.93;;;16.70;99.90;;;;;;5097267;28;20237;-65
2022/10/28 07:15:59;;;;;;;14.40;5.22;;;16.80;99.90;;;;;;5097797;28;20214;-63
2022/10/28 07:18:28;;;;;;;10.82;4.70;;;17.00;99.90;;;;;;5070191;28;20205;-64
2022/10/28 07:20:59;;;;;;;14.88;8.38;;;17.00;99.90;;;;;;5097983;28;20198;-63
2022/10/28 07:23:27;;;;;;;10.88;4.18;;;17.20;91.10;;;;;;5070977;28;20197;-63
2022/10/28 07:25:55;;;;;;;14.75;6.40;;;17.30;24.60;;;;;;5062615;28;20243;-64
2022/10/28 07:28:25;;;;;;;16.65;4.13;;;17.40;15.20;;;;;;5079021;28;20228;-65
2022/10/28 07:30:52;;;;;;;13.38;4.60;;;17.50;1.00;;;;;;5097795;28;20515;-65
2022/10/28 07:33:19;;;;;;;12.57;4.32;;;17.60;1.00;;;;;;5095482;28;20224;-64
2022/10/28 07:35:46;;;;;;;10.20;4.10;;;17.70;1.10;;;;;;5083717;28;20744;-64
2022/10/28 07:38:14;;;;;;;16.77;6.38;;;17.70;1.00;;;;;;5097629;28;20194;-64
2022/10/28 07:40:41;;;;;;;22.08;9.35;;;17.70;1.00;;;;;;5070629;28;20192;-64
2022/10/28 07:43:08;;;;;;;49.30;28.77;;;17.80;1.00;;;;;;5070613;28;20201;-63
2022/10/28 07:45:35;;;;;;;21.90;4.65;;;17.70;1.00;;;;;;5096123;28;20203;-64
2022/10/28 07:48:03;;;;;;;15.48;4.47;;;17.60;4.60;;;;;;5098705;28;20337;-63
2022/10/28 07:50:30;;;;;;;18.10;4.60;;;17.60;1.00;;;;;;5085358;28;20200;-64
2022/10/28 07:52:58;;;;;;;13.57;5.00;;;17.80;1.00;;;;;;5083894;28;20220;-64
2022/10/28 07:55:25;;;;;;;7.53;4.03;;;18.00;1.00;;;;;;5068208;28;20732;-65
2022/10/28 07:57:52;;;;;;;14.32;4.25;;;18.20;1.00;;;;;;5085876;28;20286;-65
2022/10/28 08:00:20;;;;;;;15.05;5.00;;;18.40;1.00;;;;;;5099573;28;20193;-65
2022/10/28 08:02:47;;;;;;;23.98;9.80;;;18.60;1.00;;;;;;5078557;28;20631;-64
2022/10/28 08:05:14;;;;;;;30.90;15.65;;;18.60;1.00;;;;;;5093506;28;20204;-64
2022/10/28 08:07:41;;;;;;;39.13;19.00;;;18.70;1.00;;;;;;5085655;28;20215;-66
2022/10/28 08:10:08;;;;;;;14.60;4.82;;;18.90;1.00;;;;;;5079421;28;20741;-65
2022/10/28 08:12:35;;;;;;;18.90;4.95;;;19.00;1.00;;;;;;5080520;28;20210;-64
2022/10/28 08:15:03;;;;;;;20.05;4.68;;;19.20;1.00;;;;;;5098803;28;20665;-66
2022/10/28 08:17:30;;;;;;;19.00;8.10;;;19.60;1.00;;;;;;5070811;28;20193;-64
2022/10/28 08:19:57;;;;;;;74.57;39.25;;;19.90;1.00;;;;;;5077662;28;20248;-70
2022/10/28 08:22:24;;;;;;;21.30;9.25;;;20.00;1.00;;;;;;5098068;28;20560;-71
2022/10/28 08:24:50;;;;;;;15.65;5.78;;;20.00;1.00;;;;;;5086789;28;20632;-64
2022/10/28 08:27:17;;;;;;;12.38;3.75;;;20.40;1.00;;;;;;5098285;28;20237;-64
2022/10/28 08:29:44;;;;;;;12.45;4.30;;;20.40;1.00;;;;;;5070274;28;20204;-67
2022/10/28 08:32:13;;;;;;;18.17;4.90;;;20.80;1.00;;;;;;5088192;28;20248;-64
2022/10/28 08:34:40;;;;;;;11.65;4.00;;;21.00;1.00;;;;;;5103887;28;20218;-70
2022/10/28 08:37:09;;;;;;;12.45;3.80;;;21.20;1.00;;;;;;5099591;28;20259;-66
2022/10/28 08:39:37;;;;;;;13.30;4.03;;;21.30;1.00;;;;;;5083478;28;20193;-64
2022/10/28 08:42:25;;;;;;;13.00;3.67;;;21.50;1.00;;;;;;5082873;28;20218;-65
2022/10/28 08:45:34;;;;;;;20.08;4.40;;;21.50;1.00;;;;;;5081548;28;20189;-67
2022/10/28 08:48:14;;;;;;;12.73;4.03;;;21.40;1.00;;;;;;5082279;28;20293;-64
2022/10/28 08:50:54;;;;;;;15.02;4.85;;;21.40;1.00;;;;;;5090925;28;20213;-64
2022/10/28 08:53:36;;;;;;;15.30;5.03;;;21.70;1.00;;;;;;5091810;28;20714;-65
2022/10/28 08:56:24;;;;;;;17.00;4.28;;;21.70;1.00;;;;;;5101562;28;20788;-65
2022/10/28 08:58:53;;;;;;;10.85;3.88;;;21.80;1.00;;;;;;5101865;28;20250;-64
2022/10/28 09:01:52;;;;;;;16.45;4.22;;;21.60;1.00;;;;;;5102977;28;20184;-64
2022/10/28 09:04:43;;;;;;;13.07;4.38;;;21.70;1.00;;;;;;5083179;28;20216;-64
2022/10/28 09:07:19;;;;;;;11.02;3.78;;;22.00;1.00;;;;;;5083384;28;20198;-64
2022/10/28 09:09:48;;;;;;;13.02;4.30;;;22.70;1.00;;;;;;5065268;28;20566;-63
2022/10/28 09:12:30;;;;;;;10.70;3.40;;;23.80;1.00;;;;;;5085637;28;21017;-65
2022/10/28 09:15:03;;;;;;;13.10;4.35;;;25.20;1.00;;;;;;5101479;28;20216;-64
2022/10/28 09:17:33;;;;;;;19.10;4.20;;;26.40;1.00;;;;;;5090504;28;20213;-67
2022/10/28 09:20:15;;;;;;;18.75;4.32;;;25.90;1.00;;;;;;5099919;28;20225;-65
2022/10/28 09:22:42;;;;;;;18.60;4.07;;;25.90;1.00;;;;;;5098494;28;20271;-65
2022/10/28 09:25:23;;;;;;;20.88;6.78;;;27.00;1.00;;;;;;5086384;28;20198;-64
2022/10/28 09:28:34;;;;;;;14.70;4.28;;;28.40;1.00;;;;;;5088117;28;20194;-66
2022/10/28 09:31:20;;;;;;;15.77;5.00;;;28.60;1.00;;;;;;5063596;28;20213;-64
2022/10/28 09:33:52;;;;;;;14.18;4.03;;;28.20;1.00;;;;;;5082685;28;20297;-66
2022/10/28 09:36:36;;;;;;;12.20;3.50;;;28.50;1.00;;;;;;5073370;28;20722;-66
2022/10/28 09:39:05;;;;;;;14.85;5.22;;;30.40;1.00;;;;;;5099536;28;20205;-65
2022/10/28 09:41:37;;;;;;;11.02;4.13;;;28.60;1.00;;;;;;5100062;28;20548;-65
2022/10/28 09:44:10;;;;;;;19.80;4.43;;;27.80;1.00;;;;;;5099515;28;20591;-67
2022/10/28 09:46:38;;;;;;;13.57;5.25;;;28.60;1.00;;;;;;5080916;28;20195;-65
2022/10/28 09:49:14;;;;;;;13.90;4.40;;;28.80;1.00;;;;;;5100428;28;20212;-67
2022/10/28 09:52:08;;;;;;;16.42;4.47;;;27.50;1.00;;;;;;5102705;28;20197;-64
2022/10/28 09:54:47;;;;;;;12.82;4.25;;;28.30;1.00;;;;;;5085463;28;20229;-64
2022/10/28 09:57:14;;;;;;;15.50;4.20;;;29.30;1.00;;;;;;5080975;28;20192;-65
2022/10/28 09:59:43;;;;;;;12.02;4.10;;;30.50;1.00;;;;;;5069476;28;20661;-65
2022/10/28 10:02:25;;;;;;;10.52;4.38;;;31.00;1.00;;;;;;5096902;28;20213;-64
2022/10/28 10:04:55;;;;;;;16.40;5.53;;;31.30;1.00;;;;;;5081122;28;20610;-64
2022/10/28 10:07:31;;;;;;;14.48;4.30;;;31.50;1.00;;;;;;5095082;28;20222;-67
2022/10/28 10:10:02;;;;;;;16.13;3.70;;;31.40;1.00;;;;;;5099394;28;20197;-66
2022/10/28 10:12:31;;;;;;;17.67;3.42;;;30.20;1.00;;;;;;5079481;28;20680;-66
2022/10/28 10:14:59;;;;;;;15.00;3.55;;;32.20;1.00;;;;;;5100996;28;20197;-66
2022/10/28 10:17:36;;;;;;;14.77;3.83;;;31.00;1.00;;;;;;5099092;28;20653;-64
2022/10/28 10:20:12;;;;;;;19.73;4.22;;;29.60;1.00;;;;;;5097507;28;20557;-64
2022/10/28 10:22:42;;;;;;;14.18;3.90;;;30.20;1.00;;;;;;5098452;28;20197;-64
2022/10/28 10:25:17;;;;;;;15.82;3.75;;;31.00;1.00;;;;;;5098100;28;20285;-65
2022/10/28 10:28:13;;;;;;;14.35;4.60;;;29.70;1.00;;;;;;5100107;28;20274;-65
2022/10/28 10:31:04;;;;;;;15.98;3.65;;;30.00;1.00;;;;;;5081433;28;20194;-64
2022/10/28 10:33:35;;;;;;;15.93;3.90;;;29.80;1.00;;;;;;5079822;28;20225;-65
2022/10/28 10:36:22;;;;;;;16.50;3.88;;;30.10;1.00;;;;;;5086536;28;20647;-64
2022/10/28 10:38:54;;;;;;;12.38;3.45;;;30.80;1.00;;;;;;5099133;28;20189;-65
2022/10/28 10:41:43;;;;;;;16.08;3.70;;;30.40;1.00;;;;;;5097366;28;20200;-65
2022/10/28 10:44:19;;;;;;;16.35;3.90;;;31.00;1.00;;;;;;5098099;28;20222;-66
2022/10/28 10:46:46;;;;;;;17.55;3.75;;;29.90;1.00;;;;;;5081103;28;20219;-65
2022/10/28 10:49:14;;;;;;;14.02;3.80;;;29.00;1.00;;;;;;5085583;28;20222;-64
2022/10/28 10:51:51;;;;;;;15.07;3.63;;;28.50;1.00;;;;;;5096974;28;20221;-65
2022/10/28 10:54:19;;;;;;;15.15;3.90;;;28.40;1.00;;;;;;5097927;28;20241;-65
2022/10/28 10:56:46;;;;;;;16.00;3.88;;;28.00;1.00;;;;;;5097984;28;20627;-67
2022/10/28 10:59:30;;;;;;;10.32;3.50;;;28.00;1.00;;;;;;5065778;28;20194;-65
2022/10/28 11:01:58;;;;;;;14.57;3.85;;;27.50;1.00;;;;;;5074393;28;20189;-64
2022/10/28 11:04:26;;;;;;;9.32;3.17;;;27.40;1.00;;;;;;5083309;28;20690;-64
2022/10/28 11:06:56;;;;;;;16.23;3.47;;;28.50;1.00;;;;;;5078238;28;20194;-66
2022/10/28 11:09:38;;;;;;;15.88;3.83;;;28.50;1.00;;;;;;5095904;28;20190;-65
2022/10/28 11:12:15;;;;;;;21.17;4.15;;;28.00;1.00;;;;;;5084247;28;20186;-65
2022/10/28 11:14:54;;;;;;;17.45;4.20;;;27.90;1.00;;;;;;5083775;28;20221;-66
2022/10/28 11:17:33;;;;;;;11.68;4.03;;;27.80;1.00;;;;;;5064329;28;20206;-65
2022/10/28 11:20:22;;;;;;;21.90;4.70;;;27.60;1.00;;;;;;5095967;28;20255;-65
2022/10/28 11:23:00;;;;;;;15.55;3.55;;;28.00;1.00;;;;;;5078018;28;20547;-64
2022/10/28 11:25:42;;;;;;;17.95;3.92;;;28.30;1.00;;;;;;5094755;28;20192;-66
2022/10/28 11:28:15;;;;;;;12.60;3.70;;;28.40;1.00;;;;;;5075810;28;20207;-66
2022/10/28 11:31:06;;;;;;;14.32;3.83;;;29.10;1.00;;;;;;5091354;28;20204;-65
2022/10/28 11:34:15;;;;;;;19.63;4.65;;;29.70;1.00;;;;;;5066947;28;20213;-66
2022/10/28 11:36:49;;;;;;;13.30;4.05;;;30.40;1.00;;;;;;5093923;28;20210;-68
2022/10/28 11:39:35;;;;;;;11.20;3.50;;;29.90;1.00;;;;;;5077852;28;20185;-65
2022/10/28 11:42:48;;;;;;;13.32;3.42;;;28.90;1.00;;;;;;5069325;28;20193;-64
2022/10/28 11:45:22;;;;;;;17.80;3.63;;;28.50;1.00;;;;;;5018624;28;20211;-64
2022/10/28 11:48:08;;;;;;;18.13;4.35;;;28.00;1.00;;;;;;5096338;28;20672;-65
2022/10/28 11:51:09;;;;;;;21.90;4.07;;;27.60;1.00;;;;;;5095818;28;20193;-66
2022/10/28 11:53:38;;;;;;;22.13;3.95;;;26.90;1.00;;;;;;5085469;28;20212;-67
2022/10/28 11:56:14;;;;;;;21.73;4.10;;;26.60;1.00;;;;;;5070416;28;20205;-66
2022/10/28 11:59:00;;;;;;;16.50;4.00;;;26.40;1.00;;;;;;5080973;28;20201;-64
2022/10/28 12:01:56;;;;;;;13.07;3.75;;;26.50;1.00;;;;;;5078963;28;20198;-64
2022/10/28 12:04:38;;;;;;;16.70;3.38;;;26.40;1.00;;;;;;5098679;28;20376;-65
2022/10/28 12:07:13;;;;;;;12.82;3.97;;;26.30;1.00;;;;;;5104156;28;20194;-64
2022/10/28 12:09:55;;;;;;;19.23;3.95;;;26.40;1.00;;;;;;5102450;28;20205;-64
2022/10/28 12:12:33;;;;;;;15.50;3.90;;;26.10;1.00;;;;;;5099396;28;20201;-65
2022/10/28 12:15:32;;;;;;;17.45;4.25;;;26.20;1.00;;;;;;5081818;28;20217;-65
2022/10/28 12:18:21;;;;;;;20.48;4.10;;;26.60;1.00;;;;;;5080582;28;20191;-65
2022/10/28 12:20:53;;;;;;;19.45;3.70;;;26.80;1.00;;;;;;5100966;28;20273;-65
2022/10/28 12:23:23;;;;;;;16.60;4.00;;;26.90;1.00;;;;;;5087099;28;20201;-65
2022/10/28 12:25:56;;;;;;;13.27;3.78;;;26.90;1.00;;;;;;5064340;28;20241;-65
2022/10/28 12:28:26;;;;;;;13.48;3.22;;;27.20;1.00;;;;;;5080083;28;20268;-66
2022/10/28 12:30:55;;;;;;;14.57;3.83;;;26.90;1.00;;;;;;5078804;28;20289;-64
2022/10/28 12:33:38;;;;;;;11.90;3.70;;;26.70;1.00;;;;;;5081075;28;20245;-66
2022/10/28 12:36:08;;;;;;;18.38;4.40;;;26.60;1.00;;;;;;5063333;28;20294;-64
2022/10/28 12:39:00;;;;;;;18.92;3.90;;;26.40;1.00;;;;;;5078687;28;20190;-66
2022/10/28 12:41:53;;;;;;;15.43;3.83;;;26.30;1.00;;;;;;5079426;28;20183;-66
2022/10/28 12:44:22;;;;;;;13.68;3.78;;;26.50;1.00;;;;;;5062955;28;20899;-64
2022/10/28 12:47:33;;;;;;;16.63;3.85;;;26.50;1.00;;;;;;5078530;28;20329;-65
2022/10/28 12:50:07;;;;;;;19.83;4.20;;;26.40;1.00;;;;;;5068444;28;20191;-65
2022/10/28 12:52:37;;;;;;;11.88;3.85;;;26.50;1.00;;;;;;5059141;28;20680;-64
2022/10/28 12:55:23;;;;;;;21.45;3.92;;;26.50;1.00;;;;;;5071971;28;20606;-67
2022/10/28 12:58:17;;;;;;;11.95;3.97;;;26.30;1.00;;;;;;5082484;28;20289;-64
2022/10/28 13:00:53;;;;;;;15.00;3.88;;;26.10;1.00;;;;;;5050703;28;20206;-63
2022/10/28 13:03:20;;;;;;;19.30;4.30;;;26.10;1.00;;;;;;5082102;28;20193;-64
2022/10/28 13:05:50;;;;;;;16.63;4.05;;;26.10;1.00;;;;;;5064843;28;20695;-65
2022/10/28 13:08:39;;;;;;;19.75;3.67;;;26.40;1.00;;;;;;5061511;28;20282;-65
2022/10/28 13:11:30;;;;;;;12.25;3.90;;;26.40;1.00;;;;;;5082449;28;20724;-66
2022/10/28 13:14:15;;;;;;;13.32;3.88;;;26.30;1.00;;;;;;5078898;28;20245;-65